sensor_id;sensor_type;location;lat;lon;timestamp;temperature;humidity
68648;SHT31;55632;51.962;16.116;2022-12-05T00:00:33;3.33;91.50
68648;SHT31;55632;51.962;16.116;2022-12-05T00:05:38;3.31;91.50
68648;SHT31;55632;51.962;16.116;2022-12-05T00:10:38;3.28;91.58
68648;SHT31;55632;51.962;16.116;2022-12-05T00:15:39;3.24;91.67
68648;SHT31;55632;51.962;16.116;2022-12-05T00:20:47;3.26;91.73
68648;SHT31;55632;51.962;16.116;2022-12-05T00:25:48;3.30;91.75
68648;SHT31;55632;51.962;16.116;2022-12-05T00:30:48;3.26;91.75
68648;SHT31;55632;51.962;16.116;2022-12-05T00:35:49;3.28;91.71
68648;SHT31;55632;51.962;16.116;2022-12-05T00:40:49;3.27;91.66
68648;SHT31;55632;51.962;16.116;2022-12-05T00:45:50;3.23;91.82
68648;SHT31;55632;51.962;16.116;2022-12-05T00:50:58;3.24;91.83
68648;SHT31;55632;51.962;16.116;2022-12-05T00:56:06;3.24;91.88
68648;SHT31;55632;51.962;16.116;2022-12-05T01:06:14;3.24;91.93
68648;SHT31;55632;51.962;16.116;2022-12-05T01:11:16;3.26;92.03
68648;SHT31;55632;51.962;16.116;2022-12-05T01:16:27;3.27;92.05
68648;SHT31;55632;51.962;16.116;2022-12-05T01:21:28;3.24;91.94
68648;SHT31;55632;51.962;16.116;2022-12-05T01:26:29;3.27;92.00
68648;SHT31;55632;51.962;16.116;2022-12-05T01:31:30;3.27;91.87
68648;SHT31;55632;51.962;16.116;2022-12-05T01:36:31;3.24;91.83
68648;SHT31;55632;51.962;16.116;2022-12-05T01:41:34;3.23;91.85
68648;SHT31;55632;51.962;16.116;2022-12-05T01:46:36;3.22;91.88
68648;SHT31;55632;51.962;16.116;2022-12-05T01:51:38;3.19;92.00
68648;SHT31;55632;51.962;16.116;2022-12-05T01:56:40;3.17;92.01
68648;SHT31;55632;51.962;16.116;2022-12-05T02:01:41;3.19;91.98
68648;SHT31;55632;51.962;16.116;2022-12-05T02:06:42;3.17;92.05
68648;SHT31;55632;51.962;16.116;2022-12-05T02:11:49;3.19;92.01
68648;SHT31;55632;51.962;16.116;2022-12-05T02:38:25;3.03;91.95
68648;SHT31;55632;51.962;16.116;2022-12-05T02:43:07;3.03;91.96
68648;SHT31;55632;51.962;16.116;2022-12-05T02:48:10;2.98;91.93
68648;SHT31;55632;51.962;16.116;2022-12-05T02:53:12;2.96;92.18
68648;SHT31;55632;51.962;16.116;2022-12-05T02:58:18;2.95;92.26
68648;SHT31;55632;51.962;16.116;2022-12-05T03:03:20;2.93;92.33
68648;SHT31;55632;51.962;16.116;2022-12-05T03:08:22;2.96;92.30
68648;SHT31;55632;51.962;16.116;2022-12-05T03:13:27;2.95;92.30
68648;SHT31;55632;51.962;16.116;2022-12-05T03:18:31;2.91;92.25
68648;SHT31;55632;51.962;16.116;2022-12-05T03:23:37;2.87;92.27
68648;SHT31;55632;51.962;16.116;2022-12-05T03:33:46;2.89;92.54
68648;SHT31;55632;51.962;16.116;2022-12-05T03:38:53;2.89;92.62
68648;SHT31;55632;51.962;16.116;2022-12-05T03:49:23;2.91;92.50
68648;SHT31;55632;51.962;16.116;2022-12-05T04:00:06;2.91;92.48
68648;SHT31;55632;51.962;16.116;2022-12-05T04:05:09;2.89;92.39
68648;SHT31;55632;51.962;16.116;2022-12-05T04:10:14;2.91;92.41
68648;SHT31;55632;51.962;16.116;2022-12-05T04:15:18;2.88;92.32
68648;SHT31;55632;51.962;16.116;2022-12-05T04:20:26;2.87;92.45
68648;SHT31;55632;51.962;16.116;2022-12-05T04:25:54;2.85;92.47
68648;SHT31;55632;51.962;16.116;2022-12-05T04:41:23;2.82;92.61
68648;SHT31;55632;51.962;16.116;2022-12-05T04:46:24;2.84;92.62
68648;SHT31;55632;51.962;16.116;2022-12-05T04:51:25;2.82;92.71
68648;SHT31;55632;51.962;16.116;2022-12-05T04:56:28;2.82;92.82
68648;SHT31;55632;51.962;16.116;2022-12-05T05:01:31;2.84;92.91
68648;SHT31;55632;51.962;16.116;2022-12-05T05:06:35;2.87;92.81
68648;SHT31;55632;51.962;16.116;2022-12-05T05:11:36;2.87;92.77
68648;SHT31;55632;51.962;16.116;2022-12-05T05:16:38;2.87;92.78
68648;SHT31;55632;51.962;16.116;2022-12-05T05:21:39;2.88;92.77
68648;SHT31;55632;51.962;16.116;2022-12-05T05:26:42;2.88;92.70
68648;SHT31;55632;51.962;16.116;2022-12-05T05:31:43;2.85;92.64
68648;SHT31;55632;51.962;16.116;2022-12-05T05:36:44;2.82;92.72
68648;SHT31;55632;51.962;16.116;2022-12-05T05:41:45;2.85;92.85
68648;SHT31;55632;51.962;16.116;2022-12-05T05:46:46;2.88;92.87
68648;SHT31;55632;51.962;16.116;2022-12-05T05:51:46;2.89;92.87
68648;SHT31;55632;51.962;16.116;2022-12-05T05:56:47;2.92;92.82
68648;SHT31;55632;51.962;16.116;2022-12-05T06:01:47;2.93;92.79
68648;SHT31;55632;51.962;16.116;2022-12-05T06:06:48;2.95;92.80
68648;SHT31;55632;51.962;16.116;2022-12-05T06:11:52;2.98;92.69
68648;SHT31;55632;51.962;16.116;2022-12-05T06:16:52;2.98;92.64
68648;SHT31;55632;51.962;16.116;2022-12-05T06:21:53;3.00;92.70
68648;SHT31;55632;51.962;16.116;2022-12-05T06:26:53;3.00;92.57
68648;SHT31;55632;51.962;16.116;2022-12-05T06:31:54;3.00;92.51
68648;SHT31;55632;51.962;16.116;2022-12-05T06:36:54;3.03;92.45
68648;SHT31;55632;51.962;16.116;2022-12-05T06:41:55;3.00;92.38
68648;SHT31;55632;51.962;16.116;2022-12-05T06:46:56;3.02;92.49
68648;SHT31;55632;51.962;16.116;2022-12-05T06:51:57;3.00;92.47
68648;SHT31;55632;51.962;16.116;2022-12-05T06:56:58;3.00;92.43
68648;SHT31;55632;51.962;16.116;2022-12-05T07:01:58;3.03;92.32
68648;SHT31;55632;51.962;16.116;2022-12-05T07:06:59;3.05;92.24
68648;SHT31;55632;51.962;16.116;2022-12-05T07:12:03;3.02;92.31
68648;SHT31;55632;51.962;16.116;2022-12-05T07:17:03;3.05;92.25
68648;SHT31;55632;51.962;16.116;2022-12-05T07:22:04;3.03;92.10
68648;SHT31;55632;51.962;16.116;2022-12-05T07:27:05;3.03;92.01
68648;SHT31;55632;51.962;16.116;2022-12-05T07:32:06;3.05;91.98
68648;SHT31;55632;51.962;16.116;2022-12-05T07:37:07;3.02;91.95
68648;SHT31;55632;51.962;16.116;2022-12-05T07:42:08;3.05;92.02
68648;SHT31;55632;51.962;16.116;2022-12-05T07:47:08;3.06;92.02
68648;SHT31;55632;51.962;16.116;2022-12-05T07:52:09;3.10;91.96
68648;SHT31;55632;51.962;16.116;2022-12-05T07:57:10;3.12;91.90
68648;SHT31;55632;51.962;16.116;2022-12-05T08:02:10;3.16;91.91
68648;SHT31;55632;51.962;16.116;2022-12-05T08:07:11;3.19;91.85
68648;SHT31;55632;51.962;16.116;2022-12-05T08:12:12;3.20;91.77
68648;SHT31;55632;51.962;16.116;2022-12-05T08:17:12;3.23;91.70
68648;SHT31;55632;51.962;16.116;2022-12-05T08:22:13;3.26;91.62
68648;SHT31;55632;51.962;16.116;2022-12-05T08:27:13;3.26;91.41
68648;SHT31;55632;51.962;16.116;2022-12-05T08:32:14;3.30;91.55
68648;SHT31;55632;51.962;16.116;2022-12-05T08:37:15;3.33;91.32
68648;SHT31;55632;51.962;16.116;2022-12-05T08:42:15;3.30;91.23
68648;SHT31;55632;51.962;16.116;2022-12-05T08:47:16;3.33;91.08
68648;SHT31;55632;51.962;16.116;2022-12-05T08:52:16;3.36;90.91
68648;SHT31;55632;51.962;16.116;2022-12-05T08:57:17;3.36;91.00
68648;SHT31;55632;51.962;16.116;2022-12-05T09:02:18;3.37;91.12
68648;SHT31;55632;51.962;16.116;2022-12-05T09:07:18;3.38;90.99
68648;SHT31;55632;51.962;16.116;2022-12-05T09:12:19;3.41;90.93
68648;SHT31;55632;51.962;16.116;2022-12-05T09:17:19;3.44;90.90
68648;SHT31;55632;51.962;16.116;2022-12-05T09:22:23;3.44;90.78
68648;SHT31;55632;51.962;16.116;2022-12-05T09:27:23;3.48;90.69
68648;SHT31;55632;51.962;16.116;2022-12-05T09:32:24;3.48;90.72
68648;SHT31;55632;51.962;16.116;2022-12-05T09:37:24;3.51;90.71
68648;SHT31;55632;51.962;16.116;2022-12-05T09:52:36;3.58;90.26
68648;SHT31;55632;51.962;16.116;2022-12-05T09:57:39;3.60;90.35
68648;SHT31;55632;51.962;16.116;2022-12-05T10:08:30;3.64;90.22
68648;SHT31;55632;51.962;16.116;2022-12-05T10:13:14;3.68;90.17
68648;SHT31;55632;51.962;16.116;2022-12-05T10:23:28;3.75;89.95
68648;SHT31;55632;51.962;16.116;2022-12-05T10:28:32;3.71;89.80
68648;SHT31;55632;51.962;16.116;2022-12-05T10:33:38;3.75;89.88
68648;SHT31;55632;51.962;16.116;2022-12-05T10:38:43;3.79;89.91
68648;SHT31;55632;51.962;16.116;2022-12-05T10:43:44;3.86;89.89
68648;SHT31;55632;51.962;16.116;2022-12-05T10:48:45;3.89;89.83
68648;SHT31;55632;51.962;16.116;2022-12-05T10:53:47;3.89;89.64
68648;SHT31;55632;51.962;16.116;2022-12-05T10:58:55;3.93;89.68
68648;SHT31;55632;51.962;16.116;2022-12-05T11:03:58;3.96;89.58
68648;SHT31;55632;51.962;16.116;2022-12-05T11:09:41;3.99;89.50
68648;SHT31;55632;51.962;16.116;2022-12-05T11:14:24;4.05;89.47
68648;SHT31;55632;51.962;16.116;2022-12-05T11:19:26;4.05;89.32
68648;SHT31;55632;51.962;16.116;2022-12-05T11:24:28;4.06;89.28
68648;SHT31;55632;51.962;16.116;2022-12-05T11:29:36;4.10;89.25
68648;SHT31;55632;51.962;16.116;2022-12-05T11:34:39;4.09;89.15
68648;SHT31;55632;51.962;16.116;2022-12-05T11:39:41;4.13;88.95
68648;SHT31;55632;51.962;16.116;2022-12-05T12:05:37;4.09;88.63
68648;SHT31;55632;51.962;16.116;2022-12-05T12:26:31;4.11;88.69
68648;SHT31;55632;51.962;16.116;2022-12-05T12:31:41;4.14;88.73
68648;SHT31;55632;51.962;16.116;2022-12-05T12:36:50;4.14;88.67
68648;SHT31;55632;51.962;16.116;2022-12-05T12:47:02;4.14;88.64
68648;SHT31;55632;51.962;16.116;2022-12-05T12:52:06;4.14;88.71
68648;SHT31;55632;51.962;16.116;2022-12-05T13:07:40;4.11;88.69
68648;SHT31;55632;51.962;16.116;2022-12-05T13:12:43;4.14;88.73
68648;SHT31;55632;51.962;16.116;2022-12-05T13:17:45;4.16;88.68
68648;SHT31;55632;51.962;16.116;2022-12-05T13:22:48;4.13;88.71
68648;SHT31;55632;51.962;16.116;2022-12-05T13:27:53;4.14;88.76
68648;SHT31;55632;51.962;16.116;2022-12-05T13:33:03;4.16;88.78
68648;SHT31;55632;51.962;16.116;2022-12-05T13:38:14;4.21;88.82
68648;SHT31;55632;51.962;16.116;2022-12-05T13:43:45;4.18;88.81
68648;SHT31;55632;51.962;16.116;2022-12-05T13:48:48;4.20;88.70
68648;SHT31;55632;51.962;16.116;2022-12-05T13:53:56;4.17;88.77
68648;SHT31;55632;51.962;16.116;2022-12-05T13:58:57;4.17;88.80
68648;SHT31;55632;51.962;16.116;2022-12-05T14:03:59;4.13;88.82
68648;SHT31;55632;51.962;16.116;2022-12-05T14:09:00;4.14;88.86
68648;SHT31;55632;51.962;16.116;2022-12-05T14:14:00;4.11;88.93
68648;SHT31;55632;51.962;16.116;2022-12-05T14:19:19;4.16;88.89
68648;SHT31;55632;51.962;16.116;2022-12-05T14:24:27;4.16;88.95
68648;SHT31;55632;51.962;16.116;2022-12-05T14:29:36;4.14;89.04
68648;SHT31;55632;51.962;16.116;2022-12-05T14:34:46;4.13;89.02
68648;SHT31;55632;51.962;16.116;2022-12-05T14:39:53;4.16;89.08
68648;SHT31;55632;51.962;16.116;2022-12-05T14:44:55;4.14;89.17
68648;SHT31;55632;51.962;16.116;2022-12-05T14:55:15;4.16;89.23
68648;SHT31;55632;51.962;16.116;2022-12-05T15:00:18;4.14;89.25
68648;SHT31;55632;51.962;16.116;2022-12-05T15:05:29;4.16;89.31
68648;SHT31;55632;51.962;16.116;2022-12-05T15:10:34;4.16;89.35
68648;SHT31;55632;51.962;16.116;2022-12-05T15:15:50;4.16;89.39
68648;SHT31;55632;51.962;16.116;2022-12-05T15:25:58;4.16;89.49
68648;SHT31;55632;51.962;16.116;2022-12-05T15:30:58;4.18;89.49
68648;SHT31;55632;51.962;16.116;2022-12-05T15:35:59;4.18;89.43
68648;SHT31;55632;51.962;16.116;2022-12-05T15:41:01;4.17;89.54
68648;SHT31;55632;51.962;16.116;2022-12-05T15:51:07;4.16;89.62
68648;SHT31;55632;51.962;16.116;2022-12-05T15:56:12;4.20;89.55
68648;SHT31;55632;51.962;16.116;2022-12-05T16:01:17;4.17;89.49
68648;SHT31;55632;51.962;16.116;2022-12-05T16:11:33;4.20;89.66
68648;SHT31;55632;51.962;16.116;2022-12-05T16:16:34;4.21;89.66
68648;SHT31;55632;51.962;16.116;2022-12-05T16:21:37;4.18;89.58
68648;SHT31;55632;51.962;16.116;2022-12-05T16:26:40;4.16;89.64
68648;SHT31;55632;51.962;16.116;2022-12-05T16:31:41;4.16;89.76
68648;SHT31;55632;51.962;16.116;2022-12-05T16:36:45;4.16;89.91
68648;SHT31;55632;51.962;16.116;2022-12-05T16:41:46;4.17;89.91
68648;SHT31;55632;51.962;16.116;2022-12-05T16:46:48;4.20;89.96
68648;SHT31;55632;51.962;16.116;2022-12-05T16:52:21;4.20;89.93
68648;SHT31;55632;51.962;16.116;2022-12-05T16:57:16;4.23;90.00
68648;SHT31;55632;51.962;16.116;2022-12-05T17:02:16;4.20;90.04
68648;SHT31;55632;51.962;16.116;2022-12-05T17:07:18;4.21;90.11
68648;SHT31;55632;51.962;16.116;2022-12-05T17:12:20;4.21;90.15
68648;SHT31;55632;51.962;16.116;2022-12-05T17:17:22;4.27;90.14
68648;SHT31;55632;51.962;16.116;2022-12-05T17:22:23;4.27;90.11
68648;SHT31;55632;51.962;16.116;2022-12-05T17:27:25;4.24;90.12
68648;SHT31;55632;51.962;16.116;2022-12-05T17:32:26;4.25;90.20
68648;SHT31;55632;51.962;16.116;2022-12-05T17:37:26;4.33;90.20
68648;SHT31;55632;51.962;16.116;2022-12-05T17:42:27;4.30;90.21
68648;SHT31;55632;51.962;16.116;2022-12-05T17:47:28;4.30;90.24
68648;SHT31;55632;51.962;16.116;2022-12-05T17:52:29;4.31;90.25
68648;SHT31;55632;51.962;16.116;2022-12-05T17:57:30;4.33;90.26
68648;SHT31;55632;51.962;16.116;2022-12-05T18:02:31;4.31;90.31
68648;SHT31;55632;51.962;16.116;2022-12-05T18:07:32;4.34;90.32
68648;SHT31;55632;51.962;16.116;2022-12-05T18:12:32;4.33;90.34
68648;SHT31;55632;51.962;16.116;2022-12-05T18:17:33;4.31;90.35
68648;SHT31;55632;51.962;16.116;2022-12-05T18:22:34;4.34;90.39
68648;SHT31;55632;51.962;16.116;2022-12-05T18:27:36;4.37;90.43
68648;SHT31;55632;51.962;16.116;2022-12-05T18:32:37;4.38;90.41
68648;SHT31;55632;51.962;16.116;2022-12-05T18:37:38;4.40;90.39
68648;SHT31;55632;51.962;16.116;2022-12-05T18:42:39;4.38;90.41
68648;SHT31;55632;51.962;16.116;2022-12-05T18:47:40;4.40;90.47
68648;SHT31;55632;51.962;16.116;2022-12-05T18:52:40;4.38;90.48
68648;SHT31;55632;51.962;16.116;2022-12-05T18:57:41;4.38;90.46
68648;SHT31;55632;51.962;16.116;2022-12-05T19:02:42;4.38;90.46
68648;SHT31;55632;51.962;16.116;2022-12-05T19:07:43;4.38;90.46
68648;SHT31;55632;51.962;16.116;2022-12-05T19:12:45;4.40;90.50
68648;SHT31;55632;51.962;16.116;2022-12-05T19:17:48;4.38;90.52
68648;SHT31;55632;51.962;16.116;2022-12-05T19:22:49;4.37;90.55
68648;SHT31;55632;51.962;16.116;2022-12-05T19:27:50;4.37;90.58
68648;SHT31;55632;51.962;16.116;2022-12-05T19:32:51;4.41;90.60
68648;SHT31;55632;51.962;16.116;2022-12-05T19:37:53;4.41;90.64
68648;SHT31;55632;51.962;16.116;2022-12-05T19:42:54;4.41;90.65
68648;SHT31;55632;51.962;16.116;2022-12-05T19:47:55;4.42;90.62
68648;SHT31;55632;51.962;16.116;2022-12-05T19:52:56;4.44;90.63
68648;SHT31;55632;51.962;16.116;2022-12-05T19:57:57;4.44;90.64
68648;SHT31;55632;51.962;16.116;2022-12-05T20:02:58;4.44;90.69
68648;SHT31;55632;51.962;16.116;2022-12-05T20:07:59;4.41;90.71
68648;SHT31;55632;51.962;16.116;2022-12-05T20:13:00;4.44;90.75
68648;SHT31;55632;51.962;16.116;2022-12-05T20:18:00;4.44;90.79
68648;SHT31;55632;51.962;16.116;2022-12-05T20:23:01;4.51;90.81
68648;SHT31;55632;51.962;16.116;2022-12-05T20:28:02;4.51;90.79
68648;SHT31;55632;51.962;16.116;2022-12-05T20:33:05;4.54;90.80
68648;SHT31;55632;51.962;16.116;2022-12-05T20:38:06;4.54;90.81
68648;SHT31;55632;51.962;16.116;2022-12-05T20:43:07;4.58;90.83
68648;SHT31;55632;51.962;16.116;2022-12-05T20:48:08;4.61;90.80
68648;SHT31;55632;51.962;16.116;2022-12-05T20:53:08;4.58;90.80
68648;SHT31;55632;51.962;16.116;2022-12-05T20:58:09;4.62;90.77
68648;SHT31;55632;51.962;16.116;2022-12-05T21:03:10;4.61;90.79
68648;SHT31;55632;51.962;16.116;2022-12-05T21:08:12;4.64;90.79
68648;SHT31;55632;51.962;16.116;2022-12-05T21:13:15;4.61;90.77
68648;SHT31;55632;51.962;16.116;2022-12-05T21:18:16;4.62;90.79
68648;SHT31;55632;51.962;16.116;2022-12-05T21:23:16;4.62;90.82
68648;SHT31;55632;51.962;16.116;2022-12-05T21:28:17;4.64;90.85
68648;SHT31;55632;51.962;16.116;2022-12-05T21:33:18;4.68;90.86
68648;SHT31;55632;51.962;16.116;2022-12-05T21:38:19;4.66;90.86
68648;SHT31;55632;51.962;16.116;2022-12-05T21:43:19;4.69;90.87
68648;SHT31;55632;51.962;16.116;2022-12-05T21:48:20;4.71;90.82
68648;SHT31;55632;51.962;16.116;2022-12-05T21:53:22;4.68;90.86
68648;SHT31;55632;51.962;16.116;2022-12-05T21:58:22;4.71;90.91
68648;SHT31;55632;51.962;16.116;2022-12-05T22:03:24;4.75;90.99
68648;SHT31;55632;51.962;16.116;2022-12-05T22:08:24;4.77;90.92
68648;SHT31;55632;51.962;16.116;2022-12-05T22:13:25;4.79;90.96
68648;SHT31;55632;51.962;16.116;2022-12-05T22:18:26;4.82;90.87
68648;SHT31;55632;51.962;16.116;2022-12-05T22:23:27;4.83;90.90
68648;SHT31;55632;51.962;16.116;2022-12-05T22:28:28;4.83;90.87
68648;SHT31;55632;51.962;16.116;2022-12-05T22:33:29;4.80;90.75
68648;SHT31;55632;51.962;16.116;2022-12-05T22:38:32;4.79;90.79
68648;SHT31;55632;51.962;16.116;2022-12-05T22:43:33;4.77;90.89
68648;SHT31;55632;51.962;16.116;2022-12-05T22:48:34;4.77;90.89
68648;SHT31;55632;51.962;16.116;2022-12-05T22:53:35;4.77;90.91
68648;SHT31;55632;51.962;16.116;2022-12-05T22:58:36;4.75;90.89
68648;SHT31;55632;51.962;16.116;2022-12-05T23:03:40;4.77;90.92
68648;SHT31;55632;51.962;16.116;2022-12-05T23:08:41;4.77;90.88
68648;SHT31;55632;51.962;16.116;2022-12-05T23:13:43;4.73;90.90
68648;SHT31;55632;51.962;16.116;2022-12-05T23:18:43;4.73;90.97
68648;SHT31;55632;51.962;16.116;2022-12-05T23:23:48;4.75;91.07
68648;SHT31;55632;51.962;16.116;2022-12-05T23:28:49;4.76;91.09
68648;SHT31;55632;51.962;16.116;2022-12-05T23:33:49;4.79;91.05
68648;SHT31;55632;51.962;16.116;2022-12-05T23:38:50;4.82;91.05
68648;SHT31;55632;51.962;16.116;2022-12-05T23:43:51;4.80;90.98
68648;SHT31;55632;51.962;16.116;2022-12-05T23:48:55;4.79;91.01
68648;SHT31;55632;51.962;16.116;2022-12-05T23:53:58;4.80;91.02
68648;SHT31;55632;51.962;16.116;2022-12-05T23:58:59;4.79;91.09
